Christina O — C6FN7 — position and weather

sailwx.info

Track history (hours):
 
Tides and Currents Weather Stations Pressure Air Temp Water Temp Dewpoint Dewpoint Depression Visibility Wind Speed Wind Dir Waves Ship Positions

Christina O

Operator: V Ships Leisure SAM

Last reported at 2018-Feb-21 12:53 UTC. Time now 2018-Feb-24 12:17 UTC.
Position S 27°34' E 153°41'.

Length 186 m; draft 6.1 m.

Type: Passenger vessel. MMSI: 308322000.

Date/timePositionNaut miles runAvg speedWind from/ knotsBaromVisibWave heightAir tempDewpointWater temp
2018-Feb-21 12:53S 27°34' E 153°41'615.9
2018-Feb-21 12:30S 27°40' E 153°42'815.9
2018-Feb-21 12:00S 27°48' E 153°43'815.8
2018-Feb-21 11:30S 27°56' E 153°43'815.5
2018-Feb-21 11:00S 28°03' E 153°44'815.5
2018-Feb-21 10:30S 28°11' E 153°45'815.9
2018-Feb-21 10:00S 28°19' E 153°45'815.9
2018-Feb-21 09:30S 28°27' E 153°45'24913.9
2018-Feb-20 15:37S 32°29' E 152°38'315.2
2018-Feb-20 15:24S 32°31' E 152°35'614.9
2018-Feb-20 15:00S 32°36' E 152°31'715.2
2018-Feb-20 14:30S 32°41' E 152°25'815.1
2018-Feb-20 14:00S 32°47' E 152°19'714.9
2018-Feb-20 13:31S 32°53' E 152°13'714.8
2018-Feb-20 13:00S 32°59' E 152°08'714.8
2018-Feb-20 12:31S 33°05' E 152°03'714.8
2018-Feb-20 12:00S 33°11' E 151°58'3314.1
2018-Feb-20 09:38S 33°38' E 151°34'214.1
2018-Feb-20 09:29S 33°40' E 151°33'714.0
2018-Feb-20 09:00S 33°45' E 151°28'714.2
2018-Feb-20 08:29S 33°50' E 151°22'6 0.2
2018-Feb-18 20:03S 33°51' E 151°15'0 8.8
2018-Feb-18 20:00S 33°51' E 151°15'5 9.8
2018-Feb-18 19:31S 33°51' E 151°21'510.2
2018-Feb-18 19:00S 33°57' E 151°21'812.7
2018-Feb-18 18:23S 34°04' E 151°19'613.9
2018-Feb-18 17:57S 34°10' E 151°19'1413.7
2018-Feb-18 16:57S 34°24' E 151°17'613.5
2018-Feb-18 16:30S 34°30' E 151°16'6413.4
2018-Feb-18 11:46S 35°31' E 150°56'413.7
2018-Feb-18 11:29S 35°35' E 150°54'913.6
2018-Feb-18 10:49S 35°43' E 150°49'1013.9
2018-Feb-18 10:06S 35°52' E 150°44'1013.9
2018-Feb-18 09:25S 36°01' E 150°39'12315.2
2018-Feb-18 01:19S 37°54' E 149°38'617.4
2018-Feb-18 00:58S 37°58' E 149°32'1917.6
2018-Feb-17 23:54S 38°11' E 149°15'717.3
2018-Feb-17 23:30S 38°16' E 149°09'1017.4
2018-Feb-17 22:56S 38°22' E 148°59'817.5
2018-Feb-17 22:30S 38°26' E 148°51'917.4
2018-Feb-17 21:59S 38°31' E 148°42'817.0
2018-Feb-17 21:30S 38°36' E 148°33'917.8
2018-Feb-17 20:58S 38°41' E 148°23'918.2
2018-Feb-17 20:30S 38°46' E 148°14'918.5
2018-Feb-17 19:59S 38°50' E 148°03'918.4
2018-Feb-17 19:30S 38°53' E 147°52'918.7
2018-Feb-17 19:00S 38°56' E 147°41'918.4
2018-Feb-17 18:30S 38°59' E 147°30'918.5
2018-Feb-17 18:00S 39°03' E 147°18'918.5
2018-Feb-17 17:30S 39°06' E 147°07'918.1
2018-Feb-17 17:00S 39°09' E 146°56'3317.5
2018-Feb-17 15:07S 39°16' E 146°15'9711.9
2018-Feb-17 06:59S 38°02' E 144°55'715.2
2018-Feb-17 06:30S 37°55' E 144°56'4 7.2
2018-Feb-17 05:58S 37°51' E 144°56'0 0.0
2018-Feb-17 05:29S 37°51' E 144°56'0 0.0
2018-Feb-17 04:58S 37°51' E 144°56'0 0.0
2018-Feb-17 04:29S 37°51' E 144°56'0 0.0
2018-Feb-17 03:56S 37°51' E 144°56'0 0.0
2018-Feb-17 03:26S 37°51' E 144°56'0 0.0
2018-Feb-17 02:52S 37°51' E 144°56'0 0.0
2018-Feb-17 00:49S 37°51' E 144°56'0 0.0
2018-Feb-16 23:53S 37°51' E 144°56'0 0.0
2018-Feb-16 23:26S 37°51' E 144°56'0 0.0
2018-Feb-16 21:16S 37°51' E 144°56'0 0.0
2018-Feb-16 20:53S 37°51' E 144°56'0 0.0
2018-Feb-16 19:59S 37°51' E 144°56'0 0.0
2018-Feb-16 19:29S 37°51' E 144°56'0 0.0
2018-Feb-16 18:59S 37°51' E 144°56'0 0.0
2018-Feb-16 18:29S 37°51' E 144°56'0 0.0
2018-Feb-16 17:53S 37°51' E 144°56'0 0.0
2018-Feb-16 17:29S 37°51' E 144°56'0 0.0
2018-Feb-16 16:56S 37°51' E 144°56'0 0.0
2018-Feb-16 16:25S 37°51' E 144°56'0 0.0
2018-Feb-16 15:58S 37°51' E 144°56'0 0.0
2018-Feb-16 15:28S 37°51' E 144°56'0 0.0
2018-Feb-16 14:58S 37°51' E 144°56'0 0.0
2018-Feb-16 14:28S 37°51' E 144°56'0 0.0
2018-Feb-16 13:56S 37°51' E 144°56'0 0.0
2018-Feb-16 13:29S 37°51' E 144°56'0 0.0
2018-Feb-16 12:58S 37°51' E 144°56'0 0.0
2018-Feb-16 12:28S 37°51' E 144°56'0 0.0
2018-Feb-16 11:56S 37°51' E 144°56'0 0.0
2018-Feb-16 11:28S 37°51' E 144°56'0 0.0
2018-Feb-16 10:44S 37°51' E 144°56'0 0.0
2018-Feb-16 10:29S 37°51' E 144°56'0 0.0
2018-Feb-16 09:58S 37°51' E 144°56'0 0.0
2018-Feb-16 09:29S 37°51' E 144°56'0 0.0
2018-Feb-16 08:56S 37°51' E 144°56'0 0.0
2018-Feb-16 08:29S 37°51' E 144°56'0 0.0
2018-Feb-16 07:55S 37°51' E 144°56'0 0.0
2018-Feb-16 07:29S 37°51' E 144°56'0 0.0
2018-Feb-16 06:58S 37°51' E 144°56'0 0.0
2018-Feb-16 05:37S 37°51' E 144°56'0 0.0
2018-Feb-16 04:34S 37°51' E 144°56'0 0.0
2018-Feb-16 04:16S 37°51' E 144°56'0 0.0
2018-Feb-15 22:41S 37°51' E 144°56'0 0.0
2018-Feb-15 22:28S 37°51' E 144°56'2 4.1
2018-Feb-15 21:57S 37°53' E 144°56'813.6
2018-Feb-15 21:22S 38°01' E 144°55'16011.4
2018-Feb-15 07:23S 40°36' E 145°44'813.1
2018-Feb-15 06:47S 40°44' E 145°47'513.3
2018-Feb-15 06:25S 40°48' E 145°50'513.1
2018-Feb-15 06:00S 40°53' E 145°53'813.2
2018-Feb-15 05:26S 41°00' E 145°56'3 6.1
2018-Feb-15 04:56S 41°03' E 145°55'0 0.1
2018-Feb-15 04:17S 41°03' E 145°55'0 0.1
2018-Feb-15 03:41S 41°03' E 145°55'0 0.2
2018-Feb-15 03:26S 41°03' E 145°55'0 0.0
2018-Feb-15 02:47S 41°03' E 145°55'0 0.0
2018-Feb-15 01:17S 41°03' E 145°55'0 0.0
2018-Feb-15 00:59S 41°03' E 145°55'0 0.0
2018-Feb-15 00:29S 41°03' E 145°55'0 0.0
2018-Feb-14 23:56S 41°03' E 145°55'0 0.0
2018-Feb-14 23:29S 41°03' E 145°55'0 0.0
2018-Feb-14 22:59S 41°03' E 145°55'0 0.0
2018-Feb-14 22:26S 41°03' E 145°55'0 0.1
2018-Feb-14 21:59S 41°03' E 145°55'0 0.1
2018-Feb-14 21:29S 41°03' E 145°55'0 0.1
2018-Feb-14 20:59S 41°03' E 145°55'0 0.1
2018-Feb-14 20:29S 41°03' E 145°55'0 0.0
2018-Feb-14 19:59S 41°03' E 145°55'0 0.0
2018-Feb-14 19:29S 41°03' E 145°55'0 0.0
2018-Feb-14 18:59S 41°03' E 145°55'0 0.0
2018-Feb-14 18:29S 41°03' E 145°55'0 0.0
2018-Feb-14 17:59S 41°03' E 145°55'0 0.0
2018-Feb-14 17:29S 41°03' E 145°55'0 0.1
2018-Feb-14 16:59S 41°03' E 145°55'0 0.1
2018-Feb-14 16:29S 41°03' E 145°55'0 0.0
2018-Feb-14 15:59S 41°03' E 145°55'0 0.0
2018-Feb-14 15:29S 41°03' E 145°55'0 0.0
2018-Feb-14 14:59S 41°03' E 145°55'0 0.0
2018-Feb-14 14:29S 41°03' E 145°55'0 0.1
2018-Feb-14 13:59S 41°03' E 145°55'0 0.1
2018-Feb-14 13:29S 41°03' E 145°55'0 0.0
2018-Feb-14 12:59S 41°03' E 145°55'0 0.0
2018-Feb-14 12:29S 41°03' E 145°55'0 0.1
2018-Feb-14 11:59S 41°03' E 145°55'0 0.0
2018-Feb-14 11:29S 41°03' E 145°55'0 0.0
2018-Feb-14 10:59S 41°03' E 145°55'0 0.1
2018-Feb-14 10:29S 41°03' E 145°55'0 0.1
2018-Feb-14 09:59S 41°03' E 145°55'0 0.0
2018-Feb-14 09:29S 41°03' E 145°55'0 0.1
2018-Feb-14 08:59S 41°03' E 145°55'0 0.1
2018-Feb-14 08:29S 41°03' E 145°55'0 0.0
2018-Feb-14 07:53S 41°03' E 145°55'8 6.1
2018-Feb-14 06:35S 40°59' E 146°04'312.4
2018-Feb-14 06:21S 40°59' E 146°08'412.3
2018-Feb-14 06:00S 40°59' E 146°13'712.2
2018-Feb-14 05:28S 40°59' E 146°22'511.4
2018-Feb-14 05:00S 40°58' E 146°29'510.2
2018-Feb-14 04:30S 40°57' E 146°35'5 9.4
2018-Feb-14 04:00S 40°55' E 146°41'4 8.0
2018-Feb-14 03:30S 40°54' E 146°46'4 7.3
2018-Feb-14 03:00S 40°52' E 146°50'3 6.4
2018-Feb-14 02:30S 40°51' E 146°54'4 7.7
2018-Feb-14 02:01S 40°48' E 146°58'4 8.2
2018-Feb-14 01:31S 40°46' E 147°03'4 8.8
2018-Feb-14 01:01S 40°45' E 147°09'5 9.2
2018-Feb-14 00:30S 40°44' E 147°14'5 9.3
2018-Feb-14 00:00S 40°42' E 147°20'5 9.6
2018-Feb-13 23:30S 40°41' E 147°26'5 9.9
2018-Feb-13 23:00S 40°39' E 147°32'510.2
2018-Feb-13 22:30S 40°38' E 147°39'611.8
2018-Feb-13 22:01S 40°38' E 147°47'612.0
2018-Feb-13 21:30S 40°38' E 147°55'613.0
2018-Feb-13 21:00S 40°38' E 148°03'714.9
2018-Feb-13 20:30S 40°40' E 148°13'714.4
2018-Feb-13 20:00S 40°41' E 148°22'816.1
2018-Feb-13 19:30S 40°42' E 148°33'917.9
2018-Feb-13 18:59S 40°43' E 148°45'  
Track history (hours):
 
Tides and Currents Weather Stations Pressure Air Temp Water Temp Dewpoint Dewpoint Depression Visibility Wind Speed Wind Dir Waves Ship Positions

Christina O

Operator: V Ships Leisure SAM

Last reported at 2018-Feb-21 12:53 UTC. Time now 2018-Feb-24 12:17 UTC.
Position S 27°34' E 153°41'.

Length 186 m; draft 6.1 m.

Type: Passenger vessel. MMSI: 308322000.

Date/timePositionNaut miles runAvg speedWind from/ knotsBaromVisibWave heightAir tempDewpointWater temp
2018-Feb-21 12:53S 27°34' E 153°41'615.9
2018-Feb-21 12:30S 27°40' E 153°42'815.9
2018-Feb-21 12:00S 27°48' E 153°43'815.8
2018-Feb-21 11:30S 27°56' E 153°43'815.5
2018-Feb-21 11:00S 28°03' E 153°44'815.5
2018-Feb-21 10:30S 28°11' E 153°45'815.9
2018-Feb-21 10:00S 28°19' E 153°45'815.9
2018-Feb-21 09:30S 28°27' E 153°45'24913.9
2018-Feb-20 15:37S 32°29' E 152°38'315.2
2018-Feb-20 15:24S 32°31' E 152°35'614.9
2018-Feb-20 15:00S 32°36' E 152°31'715.2
2018-Feb-20 14:30S 32°41' E 152°25'815.1
2018-Feb-20 14:00S 32°47' E 152°19'714.9
2018-Feb-20 13:31S 32°53' E 152°13'714.8
2018-Feb-20 13:00S 32°59' E 152°08'714.8
2018-Feb-20 12:31S 33°05' E 152°03'714.8
2018-Feb-20 12:00S 33°11' E 151°58'3314.1
2018-Feb-20 09:38S 33°38' E 151°34'214.1
2018-Feb-20 09:29S 33°40' E 151°33'714.0
2018-Feb-20 09:00S 33°45' E 151°28'714.2
2018-Feb-20 08:29S 33°50' E 151°22'6 0.2
2018-Feb-18 20:03S 33°51' E 151°15'0 8.8
2018-Feb-18 20:00S 33°51' E 151°15'5 9.8
2018-Feb-18 19:31S 33°51' E 151°21'510.2
2018-Feb-18 19:00S 33°57' E 151°21'812.7
2018-Feb-18 18:23S 34°04' E 151°19'613.9
2018-Feb-18 17:57S 34°10' E 151°19'1413.7
2018-Feb-18 16:57S 34°24' E 151°17'613.5
2018-Feb-18 16:30S 34°30' E 151°16'6413.4
2018-Feb-18 11:46S 35°31' E 150°56'413.7
2018-Feb-18 11:29S 35°35' E 150°54'913.6
2018-Feb-18 10:49S 35°43' E 150°49'1013.9
2018-Feb-18 10:06S 35°52' E 150°44'1013.9
2018-Feb-18 09:25S 36°01' E 150°39'12315.2
2018-Feb-18 01:19S 37°54' E 149°38'617.4
2018-Feb-18 00:58S 37°58' E 149°32'1917.6
2018-Feb-17 23:54S 38°11' E 149°15'717.3
2018-Feb-17 23:30S 38°16' E 149°09'1017.4
2018-Feb-17 22:56S 38°22' E 148°59'817.5
2018-Feb-17 22:30S 38°26' E 148°51'917.4
2018-Feb-17 21:59S 38°31' E 148°42'817.0
2018-Feb-17 21:30S 38°36' E 148°33'917.8
2018-Feb-17 20:58S 38°41' E 148°23'918.2
2018-Feb-17 20:30S 38°46' E 148°14'918.5
2018-Feb-17 19:59S 38°50' E 148°03'918.4
2018-Feb-17 19:30S 38°53' E 147°52'918.7
2018-Feb-17 19:00S 38°56' E 147°41'918.4
2018-Feb-17 18:30S 38°59' E 147°30'918.5
2018-Feb-17 18:00S 39°03' E 147°18'918.5
2018-Feb-17 17:30S 39°06' E 147°07'918.1
2018-Feb-17 17:00S 39°09' E 146°56'3317.5
2018-Feb-17 15:07S 39°16' E 146°15'9711.9
2018-Feb-17 06:59S 38°02' E 144°55'715.2
2018-Feb-17 06:30S 37°55' E 144°56'4 7.2
2018-Feb-17 05:58S 37°51' E 144°56'0 0.0
2018-Feb-17 05:29S 37°51' E 144°56'0 0.0
2018-Feb-17 04:58S 37°51' E 144°56'0 0.0
2018-Feb-17 04:29S 37°51' E 144°56'0 0.0
2018-Feb-17 03:56S 37°51' E 144°56'0 0.0
2018-Feb-17 03:26S 37°51' E 144°56'0 0.0
2018-Feb-17 02:52S 37°51' E 144°56'0 0.0
2018-Feb-17 00:49S 37°51' E 144°56'0 0.0
2018-Feb-16 23:53S 37°51' E 144°56'0 0.0
2018-Feb-16 23:26S 37°51' E 144°56'0 0.0
2018-Feb-16 21:16S 37°51' E 144°56'0 0.0
2018-Feb-16 20:53S 37°51' E 144°56'0 0.0
2018-Feb-16 19:59S 37°51' E 144°56'0 0.0
2018-Feb-16 19:29S 37°51' E 144°56'0 0.0
2018-Feb-16 18:59S 37°51' E 144°56'0 0.0
2018-Feb-16 18:29S 37°51' E 144°56'0 0.0
2018-Feb-16 17:53S 37°51' E 144°56'0 0.0
2018-Feb-16 17:29S 37°51' E 144°56'0 0.0
2018-Feb-16 16:56S 37°51' E 144°56'0 0.0
2018-Feb-16 16:25S 37°51' E 144°56'0 0.0
2018-Feb-16 15:58S 37°51' E 144°56'0 0.0
2018-Feb-16 15:28S 37°51' E 144°56'0 0.0
2018-Feb-16 14:58S 37°51' E 144°56'0 0.0
2018-Feb-16 14:28S 37°51' E 144°56'0 0.0
2018-Feb-16 13:56S 37°51' E 144°56'0 0.0
2018-Feb-16 13:29S 37°51' E 144°56'0 0.0
2018-Feb-16 12:58S 37°51' E 144°56'0 0.0
2018-Feb-16 12:28S 37°51' E 144°56'0 0.0
2018-Feb-16 11:56S 37°51' E 144°56'0 0.0
2018-Feb-16 11:28S 37°51' E 144°56'0 0.0
2018-Feb-16 10:44S 37°51' E 144°56'0 0.0
2018-Feb-16 10:29S 37°51' E 144°56'0 0.0
2018-Feb-16 09:58S 37°51' E 144°56'0 0.0
2018-Feb-16 09:29S 37°51' E 144°56'0 0.0
2018-Feb-16 08:56S 37°51' E 144°56'0 0.0
2018-Feb-16 08:29S 37°51' E 144°56'0 0.0
2018-Feb-16 07:55S 37°51' E 144°56'0 0.0
2018-Feb-16 07:29S 37°51' E 144°56'0 0.0
2018-Feb-16 06:58S 37°51' E 144°56'0 0.0
2018-Feb-16 05:37S 37°51' E 144°56'0 0.0
2018-Feb-16 04:34S 37°51' E 144°56'0 0.0
2018-Feb-16 04:16S 37°51' E 144°56'0 0.0
2018-Feb-15 22:41S 37°51' E 144°56'0 0.0
2018-Feb-15 22:28S 37°51' E 144°56'2 4.1
2018-Feb-15 21:57S 37°53' E 144°56'813.6
2018-Feb-15 21:22S 38°01' E 144°55'16011.4
2018-Feb-15 07:23S 40°36' E 145°44'813.1
2018-Feb-15 06:47S 40°44' E 145°47'513.3
2018-Feb-15 06:25S 40°48' E 145°50'513.1
2018-Feb-15 06:00S 40°53' E 145°53'813.2
2018-Feb-15 05:26S 41°00' E 145°56'3 6.1
2018-Feb-15 04:56S 41°03' E 145°55'0 0.1
2018-Feb-15 04:17S 41°03' E 145°55'0 0.1
2018-Feb-15 03:41S 41°03' E 145°55'0 0.2
2018-Feb-15 03:26S 41°03' E 145°55'0 0.0
2018-Feb-15 02:47S 41°03' E 145°55'0 0.0
2018-Feb-15 01:17S 41°03' E 145°55'0 0.0
2018-Feb-15 00:59S 41°03' E 145°55'0 0.0
2018-Feb-15 00:29S 41°03' E 145°55'0 0.0
2018-Feb-14 23:56S 41°03' E 145°55'0 0.0
2018-Feb-14 23:29S 41°03' E 145°55'0 0.0
2018-Feb-14 22:59S 41°03' E 145°55'0 0.0
2018-Feb-14 22:26S 41°03' E 145°55'0 0.1
2018-Feb-14 21:59S 41°03' E 145°55'0 0.1
2018-Feb-14 21:29S 41°03' E 145°55'0 0.1
2018-Feb-14 20:59S 41°03' E 145°55'0 0.1
2018-Feb-14 20:29S 41°03' E 145°55'0 0.0
2018-Feb-14 19:59S 41°03' E 145°55'0 0.0
2018-Feb-14 19:29S 41°03' E 145°55'0 0.0
2018-Feb-14 18:59S 41°03' E 145°55'0 0.0
2018-Feb-14 18:29S 41°03' E 145°55'0 0.0
2018-Feb-14 17:59S 41°03' E 145°55'0 0.0
2018-Feb-14 17:29S 41°03' E 145°55'0 0.1
2018-Feb-14 16:59S 41°03' E 145°55'0 0.1
2018-Feb-14 16:29S 41°03' E 145°55'0 0.0
2018-Feb-14 15:59S 41°03' E 145°55'0 0.0
2018-Feb-14 15:29S 41°03' E 145°55'0 0.0
2018-Feb-14 14:59S 41°03' E 145°55'0 0.0
2018-Feb-14 14:29S 41°03' E 145°55'0 0.1
2018-Feb-14 13:59S 41°03' E 145°55'0 0.1
2018-Feb-14 13:29S 41°03' E 145°55'0 0.0
2018-Feb-14 12:59S 41°03' E 145°55'0 0.0
2018-Feb-14 12:29S 41°03' E 145°55'0 0.1
2018-Feb-14 11:59S 41°03' E 145°55'0 0.0
2018-Feb-14 11:29S 41°03' E 145°55'0 0.0
2018-Feb-14 10:59S 41°03' E 145°55'0 0.1
2018-Feb-14 10:29S 41°03' E 145°55'0 0.1
2018-Feb-14 09:59S 41°03' E 145°55'0 0.0
2018-Feb-14 09:29S 41°03' E 145°55'0 0.1
2018-Feb-14 08:59S 41°03' E 145°55'0 0.1
2018-Feb-14 08:29S 41°03' E 145°55'0 0.0
2018-Feb-14 07:53S 41°03' E 145°55'8 6.1
2018-Feb-14 06:35S 40°59' E 146°04'312.4
2018-Feb-14 06:21S 40°59' E 146°08'412.3
2018-Feb-14 06:00S 40°59' E 146°13'712.2
2018-Feb-14 05:28S 40°59' E 146°22'511.4
2018-Feb-14 05:00S 40°58' E 146°29'510.2
2018-Feb-14 04:30S 40°57' E 146°35'5 9.4
2018-Feb-14 04:00S 40°55' E 146°41'4 8.0
2018-Feb-14 03:30S 40°54' E 146°46'4 7.3
2018-Feb-14 03:00S 40°52' E 146°50'3 6.4
2018-Feb-14 02:30S 40°51' E 146°54'4 7.7
2018-Feb-14 02:01S 40°48' E 146°58'4 8.2
2018-Feb-14 01:31S 40°46' E 147°03'4 8.8
2018-Feb-14 01:01S 40°45' E 147°09'5 9.2
2018-Feb-14 00:30S 40°44' E 147°14'5 9.3
2018-Feb-14 00:00S 40°42' E 147°20'5 9.6
2018-Feb-13 23:30S 40°41' E 147°26'5 9.9
2018-Feb-13 23:00S 40°39' E 147°32'510.2
2018-Feb-13 22:30S 40°38' E 147°39'611.8
2018-Feb-13 22:01S 40°38' E 147°47'612.0
2018-Feb-13 21:30S 40°38' E 147°55'613.0
2018-Feb-13 21:00S 40°38' E 148°03'714.9
2018-Feb-13 20:30S 40°40' E 148°13'714.4
2018-Feb-13 20:00S 40°41' E 148°22'816.1
2018-Feb-13 19:30S 40°42' E 148°33'917.9
2018-Feb-13 18:59S 40°43' E 148°45'  

Dump ship's entire track history